New Bern, NC

8:14 AM EST on February 09, 2016 (GMT -0500)
Fairfield Harbour | | Change Station
CLOSE
Current Station
Personal Weather Station
Location: New Bern, NC
Elevation: 20 ft
Nearby Weather Stations
Active Advisory: Flood Warning

Elev 20 ft 35.08 °N, 76.98 °W | Updated 3 seconds ago

Mostly Cloudy
Mostly Cloudy
38.7 °F
Feels Like 39 °F
N
0.0
Wind Variable Wind from WSW
Gusts 0.0 mph

Today
High -- | Low -- °F
--% Chance of Precip.
Yesterday
High -- | Low -- °F
Precip. -- in
Pressure 29.67 in
Visibility 4.0 miles
Clouds Mostly Cloudy 400 ft
Windchill 39 °F
Dew Point 38 °F
Humidity 98%
Rainfall 0.00 in
Snow Depth Not available.
7:00 AM 5:44 PM
New Moon, 1% visible
METAR KEWN 091254Z 26007KT 4SM BR BKN004 03/02 A2967 RMK AO2 SLP046 T00330022
Pressure 29.67 in
Visibility 4.0 miles
Clouds Mostly Cloudy 400 ft
Windchill 39 °F
Dew Point 38 °F
Humidity 98%
Rainfall 0.00 in
Snow Depth Not available.
7:00 AM 5:44 PM
New Moon, 1% visible
METAR KEWN 091254Z 26007KT 4SM BR BKN004 03/02 A2967 RMK AO2 SLP046 T00330022

10-Day Weather Forecast

Almanac

Astronomy

Feb. 09, 2016 Rise Set
Actual Time
Civil Twilight
Nautical Twilight
Astronomical Twilight
Moon
Length of Visible Light
Length of Day
Tomorrow will be .
, % of the Moon is Illuminated

Today's Extremes

State Highs State Lows

Community

WunderPhotos

Upload Photos

1,891,591 photos uploaded!

WunderBlog® & News

Nearby

Air Quality

  Air Quality AQ Index Pollutant
Not available.

Snow Depth

Station Depth Elevation

Earthquake Activity

City Distance Mag. Time & Date
Minimum magnitude displayed is 2.5.

Coastal Water Temperatures

Place Temperature

Stations

Nearby Weather Stations

Station Location Temp. Windchill Dew Point Humidity Wind Precip. Elev Updated Type
                   

Watches & Warnings

Flood Warning
Issued: 8:17 PM EST Feb. 8, 2016 – National Weather Service

The Flood Warning continues for
the Swift Creek near streets Ferry.
* Until further notice... or until the warning is cancelled.
* At 8 PM Monday the stage was 5.4 feet.
* Minor flooding is occurring and minor flooding is forecast.
* Flood stage is 4.0 feet.
* Impact... at 6.0 feet... homes flooded along streets Ferry Road south
of Swift Creek bridge to Piney Neck Road.

                  Fld observed forecast 8pm
location stg stg day time Tue Wed Thu

Lat... Lon 3531 7715 3529 7713 3524 7709 3522 7711
          3528 7720 3530 7718